Time;durP1;ratioP1;P1;durP2;ratioP2;P2;SDS_P1;SDS_P2;PMS_P1;PMS_P2;Temp;Humidity;BMP_temperature;BMP_pressure;BME280_temperature;BME280_humidity;BME280_pressure;Samples;Min_cycle;Max_cycle;Signal;HPM_P1;HPM_P2
2023/06/11 00:00:30;;;;;;;12.23;7.18;;;;;;;24.60;62.16;100682.09;5071318;28;20052;-62
2023/06/11 00:02:57;;;;;;;11.90;6.70;;;;;;;24.51;63.13;100678.94;5072367;28;20044;-62
2023/06/11 00:05:28;;;;;;;9.38;6.93;;;;;;;24.50;62.95;100686.59;5062843;28;20049;-64
2023/06/11 00:07:56;;;;;;;13.70;7.22;;;;;;;24.45;63.04;100680.56;5059410;28;20051;-63
2023/06/11 00:10:23;;;;;;;11.00;6.30;;;;;;;24.59;62.64;100679.69;5053906;28;20578;-64
2023/06/11 00:12:50;;;;;;;7.97;6.30;;;;;;;24.78;62.12;100677.22;5056996;28;20063;-64
2023/06/11 00:15:18;;;;;;;11.30;7.05;;;;;;;24.55;63.10;100673.31;5051789;28;20057;-63
2023/06/11 00:17:45;;;;;;;10.00;6.95;;;;;;;24.46;64.23;100677.34;5062060;28;20057;-63
2023/06/11 00:20:13;;;;;;;10.13;7.65;;;;;;;24.86;63.22;100680.81;5054443;28;20459;-62
2023/06/11 00:22:41;;;;;;;9.52;7.10;;;;;;;24.84;63.59;100680.44;5072696;28;20048;-63
2023/06/11 00:25:10;;;;;;;10.27;7.10;;;;;;;24.95;63.44;100681.19;5092851;28;20059;-63
2023/06/11 00:27:37;;;;;;;12.73;7.85;;;;;;;25.18;63.07;100678.59;5078097;28;20041;-62
2023/06/11 00:30:06;;;;;;;9.82;7.10;;;;;;;25.19;62.86;100680.22;5055066;28;20044;-64
2023/06/11 00:32:35;;;;;;;12.48;7.13;;;;;;;24.79;63.77;100690.13;5070377;28;20067;-63
2023/06/11 00:35:08;;;;;;;10.93;7.50;;;;;;;24.73;64.34;100686.13;5074612;28;20448;-63
2023/06/11 00:37:37;;;;;;;10.85;7.38;;;;;;;24.58;64.64;100686.56;5076248;28;20059;-63
2023/06/11 00:40:07;;;;;;;11.80;7.20;;;;;;;24.46;65.15;100694.22;5074499;28;20045;-63
2023/06/11 00:42:36;;;;;;;12.53;7.70;;;;;;;24.58;64.74;100687.38;5076579;28;20052;-62
2023/06/11 00:45:05;;;;;;;9.73;7.30;;;;;;;24.84;63.58;100683.25;5073536;28;20055;-63
2023/06/11 00:47:35;;;;;;;9.57;7.55;;;;;;;24.79;63.61;100683.69;5074091;28;20056;-63
2023/06/11 00:50:04;;;;;;;12.30;7.68;;;;;;;24.89;63.14;100682.81;5075928;28;20055;-62
2023/06/11 00:52:31;;;;;;;11.07;8.07;;;;;;;25.10;62.61;100688.31;5076045;28;20064;-63
2023/06/11 00:54:59;;;;;;;10.55;7.40;;;;;;;24.88;62.69;100690.44;5087157;28;20063;-63
2023/06/11 00:57:26;;;;;;;10.80;7.70;;;;;;;24.92;63.07;100693.25;5094939;28;20052;-62
2023/06/11 00:59:55;;;;;;;13.32;7.78;;;;;;;24.83;62.98;100695.72;5082499;28;20044;-62
2023/06/11 01:02:26;;;;;;;10.02;7.25;;;;;;;24.95;62.75;100692.44;5042072;28;20543;-62
2023/06/11 01:04:57;;;;;;;9.93;7.35;;;;;;;24.85;63.17;100696.09;5066423;28;20048;-63
2023/06/11 01:07:30;;;;;;;9.55;7.30;;;;;;;24.82;63.74;100694.94;5059347;28;20539;-63
2023/06/11 01:10:02;;;;;;;11.85;7.70;;;;;;;24.71;63.55;100702.63;5074039;28;20138;-63
2023/06/11 01:12:33;;;;;;;10.32;7.03;;;;;;;24.95;62.67;100695.28;5073809;28;20052;-63
2023/06/11 01:15:00;;;;;;;9.93;7.50;;;;;;;25.11;62.33;100698.38;5075071;28;20737;-63
2023/06/11 01:17:40;;;;;;;9.52;6.93;;;;;;;24.81;62.78;100698.94;5074164;28;20045;-63
2023/06/11 01:20:10;;;;;;;9.65;7.10;;;;;;;24.63;63.03;100701.03;5067826;28;20054;-62
2023/06/11 01:23:04;;;;;;;10.00;6.80;;;;;;;24.54;62.83;100700.66;5073671;28;20059;-63
2023/06/11 01:26:00;;;;;;;10.93;6.20;;;;;;;24.29;62.62;100702.75;5060552;28;20063;-62
2023/06/11 01:28:31;;;;;;;9.10;6.32;;;;;;;24.38;61.64;100701.13;5094331;28;20048;-61
2023/06/11 01:31:05;;;;;;;7.18;5.82;;;;;;;24.47;61.65;100692.22;5080976;28;20041;-63
2023/06/11 01:33:35;;;;;;;8.30;5.97;;;;;;;24.52;61.71;100692.63;5060306;28;20053;-63
2023/06/11 01:36:06;;;;;;;8.68;6.57;;;;;;;24.63;61.24;100691.75;5075922;28;20063;-62
2023/06/11 01:38:41;;;;;;;10.07;6.15;;;;;;;24.55;61.21;100685.34;5059710;28;20064;-63
2023/06/11 01:41:14;;;;;;;8.75;6.10;;;;;;;24.61;61.07;100688.56;5074292;28;20044;-63
2023/06/11 01:43:42;;;;;;;8.57;6.35;;;;;;;24.61;61.05;100688.56;5056473;28;20059;-62
2023/06/11 01:46:10;;;;;;;7.25;5.75;;;;;;;24.59;61.16;100688.16;5073166;28;20045;-63
2023/06/11 01:48:37;;;;;;;7.32;5.50;;;;;;;24.61;60.68;100682.91;5070777;28;20053;-65
2023/06/11 01:51:06;;;;;;;7.95;5.35;;;;;;;24.45;61.27;100686.19;5053235;28;20546;-65
2023/06/11 01:53:34;;;;;;;8.63;5.47;;;;;;;24.59;60.77;100685.34;5056874;28;20060;-64
2023/06/11 01:56:02;;;;;;;8.48;6.30;;;;;;;24.73;60.02;100679.66;5095219;28;20286;-64
2023/06/11 01:58:32;;;;;;;8.65;5.38;;;;;;;24.39;60.82;100683.00;5091543;28;20082;-64
2023/06/11 02:01:02;;;;;;;9.07;6.25;;;;;;;24.33;61.49;100693.09;5055907;28;20044;-64
2023/06/11 02:03:29;;;;;;;13.85;6.32;;;;;;;24.58;61.27;100692.19;5073262;28;20503;-65
2023/06/11 02:05:57;;;;;;;8.77;6.18;;;;;;;24.52;61.25;100686.19;5074633;28;20051;-64
2023/06/11 02:08:26;;;;;;;9.57;6.30;;;;;;;24.58;61.23;100680.94;5073574;28;20040;-65
2023/06/11 02:10:53;;;;;;;9.87;6.53;;;;;;;24.63;62.03;100683.31;5053650;28;20053;-64
2023/06/11 02:13:21;;;;;;;9.55;6.85;;;;;;;24.31;64.06;100687.06;5074421;28;20051;-65
2023/06/11 02:15:48;;;;;;;12.15;7.35;;;;;;;24.00;66.05;100687.94;5072762;28;20558;-65
2023/06/11 02:18:15;;;;;;;9.90;7.43;;;;;;;24.08;66.36;100695.16;5072554;28;20068;-64
2023/06/11 02:20:43;;;;;;;9.35;7.07;;;;;;;24.29;65.32;100689.47;5054459;28;20049;-64
2023/06/11 02:23:10;;;;;;;8.60;7.03;;;;;;;24.29;65.38;100683.03;5052915;28;20044;-65
2023/06/11 02:25:37;;;;;;;9.55;6.80;;;;;;;24.26;65.48;100679.03;5058619;28;20480;-64
2023/06/11 02:28:05;;;;;;;9.38;6.60;;;;;;;24.55;64.63;100678.94;5064392;28;20053;-65
2023/06/11 02:30:33;;;;;;;9.70;6.70;;;;;;;24.45;65.23;100674.94;5072679;28;20032;-64
2023/06/11 02:33:00;;;;;;;9.95;6.63;;;;;;;24.47;65.16;100678.16;5072856;28;20048;-64
2023/06/11 02:35:30;;;;;;;9.40;7.40;;;;;;;24.64;64.85;100668.81;5056511;28;20044;-64
2023/06/11 02:37:58;;;;;;;11.82;7.32;;;;;;;24.63;64.76;100672.03;5064891;28;20074;-64
2023/06/11 02:40:25;;;;;;;14.85;7.47;;;;;;;24.35;65.74;100670.97;5061171;28;20037;-65
2023/06/11 02:42:52;;;;;;;10.20;7.45;;;;;;;24.34;66.65;100674.16;5058787;28;20542;-65
2023/06/11 02:45:20;;;;;;;11.10;7.35;;;;;;;24.44;66.48;100673.34;5056727;28;20480;-65
2023/06/11 02:47:47;;;;;;;10.35;7.90;;;;;;;24.33;66.50;100667.75;5051149;28;20053;-64
2023/06/11 02:50:14;;;;;;;12.52;8.70;;;;;;;24.42;66.65;100659.69;5056542;28;20040;-64
2023/06/11 02:52:42;;;;;;;13.45;8.68;;;;;;;24.41;66.59;100662.88;5073827;28;20499;-65
2023/06/11 02:55:09;;;;;;;12.63;8.23;;;;;;;24.57;65.94;100668.84;5064774;28;20056;-64
2023/06/11 02:57:37;;;;;;;9.88;7.78;;;;;;;24.50;66.27;100664.06;5066037;28;20052;-66
2023/06/11 03:00:06;;;;;;;10.50;8.65;;;;;;;24.54;66.19;100664.03;5072205;28;20048;-65
2023/06/11 03:02:33;;;;;;;11.40;8.50;;;;;;;24.50;66.22;100668.88;5071081;28;20048;-65
2023/06/11 03:05:01;;;;;;;13.18;8.60;;;;;;;24.40;66.82;100656.47;5067220;28;20060;-64
2023/06/11 03:07:36;;;;;;;11.88;9.15;;;;;;;24.46;66.91;100666.06;5071100;28;20067;-65
2023/06/11 03:10:05;;;;;;;12.63;8.50;;;;;;;24.31;67.40;100669.34;5039279;28;20048;-64
2023/06/11 03:12:33;;;;;;;15.93;8.60;;;;;;;24.41;67.43;100668.50;5073011;28;20054;-64
2023/06/11 03:15:02;;;;;;;11.30;8.68;;;;;;;24.47;67.27;100667.69;5071543;28;20595;-64
2023/06/11 03:17:29;;;;;;;10.65;8.07;;;;;;;24.49;66.77;100664.47;5066862;28;20052;-64
2023/06/11 03:19:56;;;;;;;11.02;7.70;;;;;;;24.33;66.79;100666.94;5071717;28;20045;-64
2023/06/11 03:22:24;;;;;;;9.55;7.05;;;;;;;24.41;66.00;100665.69;5085843;28;20048;-64
2023/06/11 03:24:51;;;;;;;9.55;7.35;;;;;;;24.17;66.20;100672.22;5076633;28;20574;-64
2023/06/11 03:27:29;;;;;;;9.07;6.75;;;;;;;24.01;66.86;100683.91;5071138;28;20056;-65
2023/06/11 03:29:57;;;;;;;8.95;6.60;;;;;;;24.15;66.10;100677.44;5071904;28;20052;-64
2023/06/11 03:32:25;;;;;;;8.35;6.40;;;;;;;24.19;66.00;100678.25;5054668;28;20040;-64
2023/06/11 03:34:52;;;;;;;8.93;6.85;;;;;;;24.04;66.49;100676.69;5081693;28;20459;-65
2023/06/11 03:37:22;;;;;;;7.95;6.15;;;;;;;24.12;66.06;100681.06;5092126;28;20059;-64
2023/06/11 03:39:53;;;;;;;9.13;6.57;;;;;;;24.19;65.52;100684.69;5064959;28;20045;-64
2023/06/11 03:42:21;;;;;;;9.55;6.15;;;;;;;24.16;65.32;100684.69;5059492;28;20051;-64
2023/06/11 03:44:49;;;;;;;7.68;6.03;;;;;;;24.17;65.12;100683.47;5051223;28;20060;-65
2023/06/11 03:47:17;;;;;;;9.00;6.30;;;;;;;24.31;64.47;100689.88;5051292;28;20049;-64
2023/06/11 03:49:45;;;;;;;7.78;6.00;;;;;;;24.46;63.84;100682.97;5052943;28;20048;-64
2023/06/11 03:52:12;;;;;;;9.18;6.05;;;;;;;24.43;63.96;100682.97;5057941;28;20523;-64
2023/06/11 03:54:40;;;;;;;8.43;6.00;;;;;;;24.28;64.30;100679.44;5060293;28;20116;-64
2023/06/11 03:57:07;;;;;;;8.98;6.35;;;;;;;24.23;64.73;100691.09;5056988;28;20051;-64
2023/06/11 03:59:34;;;;;;;7.50;5.95;;;;;;;24.14;65.14;100679.47;5062134;28;20044;-66
2023/06/11 04:02:02;;;;;;;8.27;6.43;;;;;;;24.22;64.77;100688.69;5054850;28;20049;-64
2023/06/11 04:04:29;;;;;;;11.38;6.50;;;;;;;24.26;64.67;100693.09;5058498;28;20045;-65
2023/06/11 04:06:57;;;;;;;10.48;6.43;;;;;;;24.20;64.80;100688.31;5053550;28;20045;-65
2023/06/11 04:09:24;;;;;;;7.63;6.30;;;;;;;24.32;64.94;100683.03;5049353;28;20115;-65
2023/06/11 04:11:52;;;;;;;7.65;5.82;;;;;;;24.33;64.83;100675.38;5047804;28;20053;-65
2023/06/11 04:14:19;;;;;;;9.27;6.50;;;;;;;24.45;64.28;100684.19;5068421;28;20448;-64
2023/06/11 04:16:47;;;;;;;8.30;6.63;;;;;;;24.18;65.06;100694.31;5066966;28;20063;-65
2023/06/11 04:19:15;;;;;;;7.40;6.32;;;;;;;24.18;64.87;100693.53;5056821;28;20060;-65
2023/06/11 04:21:43;;;;;;;8.55;6.00;;;;;;;24.39;64.54;100693.47;5060202;28;20139;-69
2023/06/11 04:24:11;;;;;;;9.13;6.43;;;;;;;24.33;64.70;100693.09;5052183;28;20055;-64
2023/06/11 04:26:40;;;;;;;8.48;6.43;;;;;;;24.48;64.49;100683.38;5060335;28;20811;-65
2023/06/11 04:29:09;;;;;;;9.45;6.03;;;;;;;24.53;63.88;100685.75;5083111;28;20253;-65
2023/06/11 04:31:36;;;;;;;11.02;6.78;;;;;;;24.43;64.36;100689.44;5067581;28;20379;-65
2023/06/11 04:34:06;;;;;;;10.77;7.53;;;;;;;24.14;65.54;100693.53;5061464;28;20048;-65
2023/06/11 04:36:38;;;;;;;9.07;7.28;;;;;;;24.33;65.22;100692.28;5054884;28;20412;-66
2023/06/11 04:39:07;;;;;;;9.55;7.30;;;;;;;24.38;65.02;100684.22;5053588;28;21882;-64
2023/06/11 04:41:39;;;;;;;10.73;8.13;;;;;;;24.01;66.70;100694.34;5048194;28;20067;-64
2023/06/11 04:44:06;;;;;;;11.63;7.90;;;;;;;24.36;65.54;100695.09;5054250;28;20064;-64
2023/06/11 04:46:34;;;;;;;10.02;7.88;;;;;;;24.26;66.24;100690.28;5050358;28;20732;-65
2023/06/11 04:49:06;;;;;;;10.93;8.25;;;;;;;24.14;66.43;100695.56;5056744;28;20040;-65
2023/06/11 04:51:34;;;;;;;11.43;8.85;;;;;;;24.26;66.72;100692.28;5059249;28;20048;-65
2023/06/11 04:54:07;;;;;;;15.23;9.13;;;;;;;24.18;66.89;100701.97;5041722;28;20052;-64
2023/06/11 04:56:38;;;;;;;10.45;8.80;;;;;;;24.29;67.06;100695.09;5043769;28;20057;-64
2023/06/11 04:59:07;;;;;;;12.23;9.10;;;;;;;24.06;67.50;100703.19;5055377;28;20068;-64
2023/06/11 05:01:37;;;;;;;15.10;9.18;;;;;;;23.97;68.60;100697.13;5053703;28;20264;-65
2023/06/11 05:04:05;;;;;;;12.23;8.57;;;;;;;23.96;68.82;100704.00;5055119;28;20060;-64
2023/06/11 05:06:33;;;;;;;11.70;8.27;;;;;;;23.82;69.39;100698.38;5066356;28;20052;-64
2023/06/11 05:09:03;;;;;;;12.40;9.10;;;;;;;23.72;70.05;100699.19;5056409;28;20531;-64
2023/06/11 05:11:31;;;;;;;9.93;7.75;;;;;;;23.84;69.92;100703.59;5059339;28;20048;-63
2023/06/11 05:13:58;;;;;;;10.95;8.45;;;;;;;23.84;70.08;100698.78;5063752;28;20060;-64
2023/06/11 05:16:26;;;;;;;11.13;8.45;;;;;;;23.92;69.52;100699.59;5059989;28;20439;-63
2023/06/11 05:18:53;;;;;;;13.85;9.55;;;;;;;23.93;70.23;100704.00;5067643;28;20045;-64
2023/06/11 05:21:21;;;;;;;12.43;8.43;;;;;;;24.24;68.96;100703.16;5053961;28;20412;-65
2023/06/11 05:23:48;;;;;;;10.60;8.25;;;;;;;24.22;68.65;100697.94;5063183;28;20527;-65
2023/06/11 05:26:18;;;;;;;11.02;8.75;;;;;;;24.14;69.16;100695.56;5059986;28;20049;-65
2023/06/11 05:28:47;;;;;;;10.70;8.48;;;;;;;24.08;69.56;100695.16;5070629;28;20425;-65
2023/06/11 05:31:15;;;;;;;11.55;8.77;;;;;;;24.14;69.16;100699.16;5072770;28;20052;-65
2023/06/11 05:33:46;;;;;;;14.02;9.10;;;;;;;24.02;69.81;100693.97;5065834;28;20056;-65
2023/06/11 05:36:15;;;;;;;11.88;8.80;;;;;;;24.06;68.92;100702.41;5077280;28;20070;-65
2023/06/11 05:38:43;;;;;;;12.10;9.10;;;;;;;24.29;68.75;100702.75;5094347;28;20052;-64
2023/06/11 05:41:11;;;;;;;11.95;8.80;;;;;;;24.41;68.26;100713.56;5073898;28;20052;-65
2023/06/11 05:43:38;;;;;;;12.85;9.10;;;;;;;24.09;68.94;100715.66;5073561;28;20056;-65
2023/06/11 05:46:06;;;;;;;16.08;9.20;;;;;;;24.18;68.98;100716.06;5067921;28;20063;-65
2023/06/11 05:48:34;;;;;;;13.98;7.93;;;;;;;24.25;68.29;100713.22;5054928;28;20041;-64
2023/06/11 05:51:01;;;;;;;13.15;8.40;;;;;;;24.13;68.89;100708.81;5052939;28;20053;-64
2023/06/11 05:53:28;;;;;;;10.27;8.68;;;;;;;23.95;69.56;100704.41;5053387;28;20049;-65
2023/06/11 05:56:03;;;;;;;11.90;8.65;;;;;;;24.01;69.45;100709.25;5062791;28;20075;-64
2023/06/11 05:58:33;;;;;;;10.60;8.50;;;;;;;24.27;68.67;100711.59;5056106;28;20079;-65
2023/06/11 06:01:03;;;;;;;12.73;7.95;;;;;;;24.19;68.94;100718.47;5063994;28;20036;-65
2023/06/11 06:03:35;;;;;;;10.38;7.97;;;;;;;24.44;67.79;100722.00;5052227;28;20048;-65
2023/06/11 06:06:03;;;;;;;10.98;8.60;;;;;;;24.58;67.62;100720.34;5041740;28;20056;-65
2023/06/11 06:08:31;;;;;;;11.15;8.43;;;;;;;24.41;68.02;100728.44;5066297;28;20059;-65
2023/06/11 06:10:59;;;;;;;12.07;8.63;;;;;;;24.40;67.73;100721.22;5062967;28;20668;-64
2023/06/11 06:13:27;;;;;;;12.75;9.32;;;;;;;24.49;67.16;100724.41;5045251;28;20044;-64
2023/06/11 06:15:58;;;;;;;12.02;8.95;;;;;;;24.67;66.53;100717.91;5055988;28;20051;-64
2023/06/11 06:18:28;;;;;;;12.88;8.65;;;;;;;24.67;66.31;100723.53;5053384;28;20056;-65
2023/06/11 06:20:58;;;;;;;12.02;8.68;;;;;;;24.90;65.85;100713.41;5053869;28;20048;-65
2023/06/11 06:23:25;;;;;;;12.65;9.18;;;;;;;25.03;65.22;100713.72;5056395;28;20546;-64
2023/06/11 06:25:59;;;;;;;10.48;7.75;;;;;;;25.06;64.73;100715.72;5058108;28;20049;-65
2023/06/11 06:28:26;;;;;;;10.15;7.80;;;;;;;25.09;64.16;100721.34;5067657;28;20049;-65
2023/06/11 06:30:54;;;;;;;13.32;8.30;;;;;;;25.02;64.12;100715.75;5052903;28;20396;-64
2023/06/11 06:33:23;;;;;;;12.02;7.72;;;;;;;24.88;63.54;100720.66;5063352;28;20044;-64
2023/06/11 06:35:51;;;;;;;11.10;7.93;;;;;;;25.19;63.42;100726.09;5065997;28;20053;-64
2023/06/11 06:38:19;;;;;;;9.07;7.35;;;;;;;25.31;62.80;100724.84;5036069;28;20061;-65
2023/06/11 06:40:48;;;;;;;10.70;6.95;;;;;;;25.26;62.51;100717.59;5063522;28;20499;-63
2023/06/11 06:43:15;;;;;;;10.35;6.03;;;;;;;25.47;61.65;100720.31;5053912;28;20571;-64
2023/06/11 06:45:43;;;;;;;11.20;8.70;;;;;;;25.37;61.22;100711.94;5054231;28;20085;-63
2023/06/11 06:48:22;;;;;;;8.95;5.43;;;;;;;25.48;60.63;100721.94;5064318;28;20049;-65
2023/06/11 06:50:50;;;;;;;10.30;5.60;;;;;;;25.52;60.95;100719.09;5046412;28;20048;-64
2023/06/11 06:53:17;;;;;;;9.50;5.65;;;;;;;25.55;61.62;100721.06;5060877;28;20294;-63
2023/06/11 06:55:47;;;;;;;7.50;5.22;;;;;;;25.48;62.34;100716.28;5059978;28;20115;-64
2023/06/11 06:58:17;;;;;;;7.32;3.95;;;;;;;25.31;63.14;100720.00;5056624;28;20049;-64
2023/06/11 07:00:45;;;;;;;8.68;4.70;;;;;;;25.54;63.41;100720.25;5041113;28;20052;-64
2023/06/11 07:03:14;;;;;;;8.98;5.20;;;;;;;25.86;62.33;100720.00;5047193;28;20049;-65
2023/06/11 07:05:43;;;;;;;8.43;5.15;;;;;;;25.76;63.47;100726.53;5063466;28;20476;-65
2023/06/11 07:08:14;;;;;;;6.47;4.68;;;;;;;25.91;62.48;100727.22;5056863;28;20056;-64
2023/06/11 07:10:54;;;;;;;7.65;4.90;;;;;;;25.92;63.36;100728.81;5047411;28;20055;-65
2023/06/11 07:13:43;;;;;;;;;;;;;;;26.01;63.18;100731.97;5059606;28;20076;-63
2023/06/11 07:16:11;;;;;;;11.05;6.20;;;;;;;26.16;63.36;100736.28;5073606;28;20291;-64
2023/06/11 07:18:42;;;;;;;7.95;5.90;;;;;;;26.26;62.27;100749.50;5042084;28;20055;-64
2023/06/11 07:21:10;;;;;;;9.77;6.95;;;;;;;26.29;62.96;100749.44;5058876;28;20055;-64
2023/06/11 07:23:37;;;;;;;10.23;6.32;;;;;;;25.94;63.86;100749.78;5077248;28;20055;-64
2023/06/11 07:26:06;;;;;;;8.90;6.60;;;;;;;25.83;65.37;100743.41;5070586;28;20041;-65
2023/06/11 07:28:34;;;;;;;9.23;6.55;;;;;;;26.00;64.51;100758.59;5068299;28;20057;-65
2023/06/11 07:31:02;;;;;;;9.48;6.95;;;;;;;25.95;64.47;100757.03;5052928;28;20057;-64
2023/06/11 07:33:29;;;;;;;11.18;6.72;;;;;;;26.30;64.17;100753.91;5060977;28;20051;-64
2023/06/11 07:35:59;;;;;;;9.88;6.78;;;;;;;26.52;63.41;100758.09;5051887;28;20048;-66
2023/06/11 07:38:27;;;;;;;8.93;7.40;;;;;;;26.31;63.63;100761.13;5052888;28;20044;-65
2023/06/11 07:40:54;;;;;;;8.98;7.65;;;;;;;25.83;65.40;100763.19;5051448;28;20500;-65
2023/06/11 07:43:24;;;;;;;10.25;8.10;;;;;;;25.64;67.11;100760.91;5061251;28;20044;-64
2023/06/11 07:45:51;;;;;;;11.00;7.72;;;;;;;25.98;66.61;100761.03;5061688;28;20040;-64
2023/06/11 07:48:21;;;;;;;8.70;7.55;;;;;;;26.13;65.77;100749.22;5062445;28;20064;-65
2023/06/11 07:50:52;;;;;;;13.67;7.83;;;;;;;26.31;65.11;100760.34;5058977;28;20380;-65
2023/06/11 07:53:24;;;;;;;9.63;7.53;;;;;;;26.17;64.76;100763.31;5060869;28;20041;-64
2023/06/11 07:55:56;;;;;;;8.53;7.33;;;;;;;26.26;64.55;100767.25;5054253;28;20056;-64
2023/06/11 07:58:24;;;;;;;10.27;7.40;;;;;;;26.35;65.07;100763.94;5056062;28;20040;-64
2023/06/11 08:00:52;;;;;;;11.07;7.13;;;;;;;26.60;63.68;100764.47;5057343;28;20048;-62
2023/06/11 08:03:20;;;;;;;9.55;7.20;;;;;;;26.74;63.02;100763.53;5058434;28;20055;-63
2023/06/11 08:05:47;;;;;;;14.50;7.40;;;;;;;26.88;62.57;100757.69;5057096;28;20056;-61
2023/06/11 08:08:14;;;;;;;11.43;6.97;;;;;;;27.00;62.20;100757.94;5054606;28;20049;-60
2023/06/11 08:10:45;;;;;;;14.40;6.60;;;;;;;27.15;61.35;100759.34;5053554;28;20065;-61
2023/06/11 08:13:14;;;;;;;10.18;6.40;;;;;;;27.29;60.54;100749.84;5052379;28;20052;-62
2023/06/11 08:15:41;;;;;;;9.00;6.53;;;;;;;27.16;61.60;100757.34;5058653;28;20049;-62
2023/06/11 08:18:09;;;;;;;10.10;6.60;;;;;;;27.23;61.35;100754.41;5056894;28;20052;-62
2023/06/11 08:20:37;;;;;;;10.43;7.10;;;;;;;27.27;61.33;100743.81;5060298;28;20064;-63
2023/06/11 08:23:04;;;;;;;9.50;7.05;;;;;;;27.35;61.51;100746.19;5065588;28;20045;-63
2023/06/11 08:25:31;;;;;;;9.73;7.28;;;;;;;27.21;61.19;100746.34;5061435;28;20056;-62
2023/06/11 08:27:59;;;;;;;9.23;7.10;;;;;;;26.95;61.74;100749.94;5065792;28;20055;-62
2023/06/11 08:30:26;;;;;;;9.05;6.15;;;;;;;26.92;61.44;100741.50;5058533;28;20041;-62
2023/06/11 08:32:54;;;;;;;7.80;6.90;;;;;;;26.88;61.70;100744.38;5056389;28;20044;-61
2023/06/11 08:35:24;;;;;;;8.38;6.95;;;;;;;27.01;61.51;100741.75;5062542;28;20076;-61
2023/06/11 08:37:51;;;;;;;10.88;7.38;;;;;;;26.86;61.67;100746.81;5054106;28;20041;-62
2023/06/11 08:40:20;;;;;;;9.30;7.55;;;;;;;26.62;63.23;100742.25;5048878;28;20488;-61
2023/06/11 08:42:47;;;;;;;12.27;8.05;;;;;;;26.77;63.04;100748.53;5041912;28;20056;-62
2023/06/11 08:45:15;;;;;;;9.05;7.00;;;;;;;26.79;62.69;100752.56;5053467;28;20076;-62
2023/06/11 08:47:49;;;;;;;11.55;8.15;;;;;;;26.77;62.86;100745.72;5057580;28;20055;-61
2023/06/11 08:50:21;;;;;;;11.57;7.82;;;;;;;26.83;62.89;100750.50;5054959;28;20570;-61
2023/06/11 08:52:52;;;;;;;10.55;7.40;;;;;;;26.91;62.68;100749.19;5055094;28;20055;-61
2023/06/11 08:55:19;;;;;;;10.63;7.57;;;;;;;26.91;62.43;100745.53;5056428;28;20045;-61
2023/06/11 08:57:50;;;;;;;8.75;7.25;;;;;;;26.70;63.17;100745.81;5053329;28;20052;-61
2023/06/11 09:00:18;;;;;;;8.00;7.03;;;;;;;26.67;63.27;100739.75;5055661;28;20053;-62
2023/06/11 09:02:45;;;;;;;10.90;7.47;;;;;;;26.79;62.70;100743.28;5058348;28;20651;-62
2023/06/11 09:05:13;;;;;;;9.23;6.68;;;;;;;26.83;62.92;100741.22;5056294;28;20076;-61
2023/06/11 09:07:50;;;;;;;12.02;7.45;;;;;;;26.67;63.37;100745.41;5058558;28;20389;-61
2023/06/11 09:10:18;;;;;;;9.50;7.03;;;;;;;26.85;62.86;100744.41;5053925;28;20057;-62
2023/06/11 09:12:46;;;;;;;11.68;7.75;;;;;;;26.87;63.32;100750.47;5060129;28;20044;-61
2023/06/11 09:15:14;;;;;;;14.15;8.98;;;;;;;26.92;62.84;100747.16;5041009;28;20064;-60
2023/06/11 09:17:43;;;;;;;12.70;8.98;;;;;;;26.40;63.96;100755.00;5057183;28;20047;-61
2023/06/11 09:20:14;;;;;;;11.95;8.82;;;;;;;26.35;64.22;100756.25;5054322;28;20045;-61
2023/06/11 09:22:44;;;;;;;13.65;8.68;;;;;;;26.32;64.07;100757.09;5057067;28;20052;-60
2023/06/11 09:25:22;;;;;;;13.55;9.00;;;;;;;26.14;64.47;100758.47;5065545;28;20045;-60
2023/06/11 09:27:49;;;;;;;10.00;7.90;;;;;;;26.16;65.03;100762.50;5054882;28;20041;-63
2023/06/11 09:30:18;;;;;;;11.35;8.45;;;;;;;26.53;64.50;100758.91;5059996;28;20060;-61
2023/06/11 09:32:47;;;;;;;13.38;9.13;;;;;;;26.31;64.28;100768.81;5064935;28;20052;-61
2023/06/11 09:35:16;;;;;;;10.93;9.10;;;;;;;26.24;64.91;100763.25;5059874;28;20655;-60
2023/06/11 09:37:50;;;;;;;12.50;8.82;;;;;;;26.49;63.69;100772.25;5054078;28;20131;-61
2023/06/11 09:40:18;;;;;;;;;;;;;;;26.53;63.60;100773.03;5055196;28;20537;-60
2023/06/11 09:42:49;;;;;;;11.88;9.13;;;;;;;26.61;63.09;100774.53;5055837;28;19931;-60
2023/06/11 09:45:20;;;;;;;10.45;9.15;;;;;;;26.80;62.88;100776.75;5062973;28;20045;-61
2023/06/11 09:47:50;;;;;;;11.18;9.23;;;;;;;26.72;62.18;100777.28;5061810;28;20667;-60
2023/06/11 09:50:19;;;;;;;11.57;9.65;;;;;;;26.75;62.30;100782.06;5059352;28;20063;-61
2023/06/11 09:52:47;;;;;;;11.45;9.27;;;;;;;26.55;62.45;100779.06;5057847;28;20060;-60
2023/06/11 09:55:14;;;;;;;10.75;9.27;;;;;;;26.50;62.83;100776.69;5056599;28;20044;-60
2023/06/11 09:57:42;;;;;;;12.18;9.25;;;;;;;26.54;62.92;100781.06;5058623;28;20048;-61
2023/06/11 10:00:11;;;;;;;11.93;9.45;;;;;;;26.45;62.98;100782.78;5055546;28;20177;-61
2023/06/11 10:02:41;;;;;;;11.50;9.18;;;;;;;26.27;63.45;100787.81;5053994;28;20057;-61
2023/06/11 10:05:10;;;;;;;12.30;9.00;;;;;;;26.50;62.37;100785.94;5041887;28;20063;-59
2023/06/11 10:07:49;;;;;;;12.73;8.90;;;;;;;26.57;62.34;100785.09;5052399;28;20041;-60
2023/06/11 10:10:19;;;;;;;14.73;9.45;;;;;;;26.62;62.21;100788.25;5058377;28;20053;-61
2023/06/11 10:12:54;;;;;;;12.45;9.25;;;;;;;26.75;60.82;100780.06;5065413;28;20052;-61
2023/06/11 10:15:23;;;;;;;12.20;9.07;;;;;;;26.70;60.96;100791.03;5050049;28;20385;-61
2023/06/11 10:17:52;;;;;;;13.82;11.35;;;;;;;26.75;61.48;100788.53;5054531;28;20052;-61
2023/06/11 10:20:31;;;;;;;15.35;11.48;;;;;;;26.69;62.99;100792.25;5052220;28;20052;-60
2023/06/11 10:23:06;;;;;;;16.10;12.80;;;;;;;26.61;63.30;100792.31;5053931;28;20051;-61
2023/06/11 10:25:41;;;;;;;16.63;12.95;;;;;;;26.47;64.76;100800.94;5055785;28;20426;-60
2023/06/11 10:28:09;;;;;;;18.42;13.77;;;;;;;26.59;64.77;100803.22;5055673;28;20048;-61
2023/06/11 10:30:37;;;;;;;18.35;14.95;;;;;;;26.36;65.40;100800.22;5057331;28;20060;-61
2023/06/11 10:33:05;;;;;;;20.13;16.10;;;;;;;26.33;64.77;100806.72;5056966;28;20546;-62
2023/06/11 10:35:32;;;;;;;19.80;16.60;;;;;;;25.87;66.68;100802.66;5053858;28;20040;-62
2023/06/11 10:38:05;;;;;;;21.35;16.95;;;;;;;25.55;68.65;100806.50;5053673;28;20041;-62
2023/06/11 10:40:37;;;;;;;22.40;17.70;;;;;;;25.49;68.61;100802.50;5061127;28;20599;-61
2023/06/11 10:43:24;;;;;;;19.35;16.17;;;;;;;25.20;69.96;100811.50;5053654;28;20045;-60
2023/06/11 10:46:02;;;;;;;18.33;15.00;;;;;;;25.48;69.39;100808.56;5055144;28;20043;-60
2023/06/11 10:48:30;;;;;;;20.08;16.75;;;;;;;25.97;67.65;100802.56;5059417;28;20112;-60
2023/06/11 10:51:08;;;;;;;23.60;18.23;;;;;;;25.75;68.37;100803.16;5055546;28;20041;-62
2023/06/11 10:53:40;;;;;;;26.85;20.02;;;;;;;25.24;70.17;100806.66;5055787;28;20057;-61
2023/06/11 10:56:12;;;;;;;25.95;20.15;;;;;;;25.09;70.71;100811.53;5054131;28;20055;-61
2023/06/11 10:58:40;;;;;;;23.10;19.75;;;;;;;25.08;71.55;100809.16;5056717;28;20048;-64
2023/06/11 11:01:08;;;;;;;25.73;21.55;;;;;;;24.60;73.12;100810.91;5054793;28;21049;-63
2023/06/11 11:03:38;;;;;;;23.92;21.33;;;;;;;24.61;73.21;100812.50;5048274;28;20052;-60
2023/06/11 11:06:06;;;;;;;23.85;19.77;;;;;;;24.85;72.67;100809.63;5051948;28;20052;-60
2023/06/11 11:08:33;;;;;;;25.05;20.65;;;;;;;25.33;70.24;100807.03;5051433;28;20063;-59
2023/06/11 11:11:00;;;;;;;25.05;20.83;;;;;;;25.65;69.03;100801.22;5045775;28;20071;-61
2023/06/11 11:13:28;;;;;;;26.45;20.17;;;;;;;25.84;68.50;100797.84;5050709;28;20055;-61
2023/06/11 11:15:58;;;;;;;26.30;21.15;;;;;;;26.09;66.95;100796.44;5057605;28;20041;-60
2023/06/11 11:18:27;;;;;;;22.73;19.40;;;;;;;26.36;65.22;100803.03;5058771;28;20057;-61
2023/06/11 11:20:54;;;;;;;28.77;21.25;;;;;;;26.18;64.84;100795.97;5060490;28;20059;-61
2023/06/11 11:23:24;;;;;;;21.17;18.88;;;;;;;25.68;66.38;100798.38;5054656;28;20052;-61
2023/06/11 11:25:52;;;;;;;22.30;17.25;;;;;;;26.18;65.08;100788.31;5054225;28;20048;-62
2023/06/11 11:28:19;;;;;;;27.33;18.67;;;;;;;26.21;64.82;100786.66;5055986;28;20056;-61